Time;durP1;ratioP1;P1;durP2;ratioP2;P2;SDS_P1;SDS_P2;PMS_P1;PMS_P2;Temp;Humidity;BMP_temperature;BMP_pressure;BME280_temperature;BME280_humidity;BME280_pressure;Samples;Min_cycle;Max_cycle;Signal;HPM_P1;HPM_P2
2021/01/08 00:00:49;;;;;;;14.00;8.73;;;3.60;1.00;;;;;;5089615;28;20247;-62
2021/01/08 00:03:15;;;;;;;13.68;7.55;;;3.70;1.00;;;;;;5073867;28;20177;-61
2021/01/08 00:05:40;;;;;;;12.97;6.33;;;3.60;1.00;;;;;;5073765;28;20168;-62
2021/01/08 00:08:06;;;;;;;11.90;7.30;;;3.40;1.00;;;;;;5073923;28;20172;-63
2021/01/08 00:10:32;;;;;;;10.10;6.03;;;3.20;1.00;;;;;;5073918;28;20177;-62
2021/01/08 00:12:58;;;;;;;12.33;6.50;;;3.40;1.00;;;;;;5073857;28;20470;-62
2021/01/08 00:15:23;;;;;;;12.30;6.53;;;3.60;1.00;;;;;;5073764;28;20671;-62
2021/01/08 00:17:49;;;;;;;13.23;6.57;;;3.80;1.00;;;;;;5073804;28;20184;-62
2021/01/08 00:20:14;;;;;;;12.53;7.00;;;3.50;1.00;;;;;;5073528;28;20208;-62
2021/01/08 00:22:40;;;;;;;8.63;6.10;;;3.50;1.00;;;;;;5073576;28;20188;-62
2021/01/08 00:25:06;;;;;;;13.13;7.30;;;3.60;1.00;;;;;;5073526;28;20173;-62
2021/01/08 00:27:31;;;;;;;10.50;6.53;;;3.60;1.00;;;;;;5072702;28;20181;-62
2021/01/08 00:29:57;;;;;;;11.37;7.00;;;3.60;1.00;;;;;;5073889;28;20419;-62
2021/01/08 00:32:22;;;;;;;13.30;7.13;;;3.60;1.00;;;;;;5073933;28;20191;-62
2021/01/08 00:34:48;;;;;;;13.10;6.83;;;3.40;1.00;;;;;;5077038;28;20181;-62
2021/01/08 00:37:14;;;;;;;13.50;7.33;;;3.40;1.00;;;;;;5077294;28;20187;-62
2021/01/08 00:39:41;;;;;;;10.90;6.65;;;3.50;1.00;;;;;;5077271;28;20809;-62
2021/01/08 00:42:07;;;;;;;11.55;6.57;;;3.20;1.00;;;;;;5077039;28;20183;-62
2021/01/08 00:44:33;;;;;;;13.48;7.70;;;3.20;1.00;;;;;;5077233;28;20175;-62
2021/01/08 00:46:58;;;;;;;11.43;7.33;;;3.30;1.00;;;;;;5077085;28;20176;-62
2021/01/08 00:49:25;;;;;;;12.27;6.97;;;3.20;1.00;;;;;;5077336;28;20280;-61
2021/01/08 00:51:52;;;;;;;12.30;6.70;;;3.10;1.00;;;;;;5077113;28;20632;-61
2021/01/08 00:54:18;;;;;;;10.98;6.35;;;3.20;1.00;;;;;;5076943;28;20267;-61
2021/01/08 00:56:43;;;;;;;9.27;5.33;;;3.20;1.00;;;;;;5077056;28;20268;-61
2021/01/08 00:59:09;;;;;;;9.27;6.07;;;3.10;1.00;;;;;;5076696;28;20262;-61
2021/01/08 01:01:34;;;;;;;9.43;5.90;;;2.90;1.00;;;;;;5076897;28;20197;-61
2021/01/08 01:04:00;;;;;;;10.93;6.53;;;2.70;1.00;;;;;;5076554;28;20169;-61
2021/01/08 01:06:30;;;;;;;15.10;9.40;;;2.70;1.00;;;;;;5076671;28;20168;-61
2021/01/08 01:08:57;;;;;;;8.20;5.35;;;2.80;1.00;;;;;;5076651;28;20258;-61
2021/01/08 01:11:24;;;;;;;9.90;5.47;;;2.60;1.00;;;;;;5076793;28;20258;-61
2021/01/08 01:13:51;;;;;;;8.65;6.15;;;2.70;3.70;;;;;;5076561;28;20189;-61
2021/01/08 01:16:18;;;;;;;8.10;5.00;;;2.50;6.80;;;;;;5077926;28;20207;-62
2021/01/08 01:18:45;;;;;;;7.55;4.95;;;2.70;30.30;;;;;;5078253;28;20180;-62
2021/01/08 01:21:11;;;;;;;6.85;4.65;;;2.80;30.00;;;;;;5077355;28;20180;-62
2021/01/08 01:23:37;;;;;;;7.00;4.47;;;2.90;26.60;;;;;;5077138;28;20185;-62
2021/01/08 01:26:03;;;;;;;8.53;5.63;;;3.00;18.50;;;;;;5076596;28;20176;-61
2021/01/08 01:28:29;;;;;;;8.40;5.55;;;2.50;1.00;;;;;;5077572;28;20488;-60
2021/01/08 01:30:55;;;;;;;7.70;5.30;;;2.40;1.00;;;;;;5078717;28;20185;-60
2021/01/08 01:33:21;;;;;;;8.27;5.80;;;2.10;24.20;;;;;;5075995;28;20172;-63
2021/01/08 01:35:46;;;;;;;7.33;5.00;;;2.10;64.50;;;;;;5076109;28;20267;-63
2021/01/08 01:38:12;;;;;;;6.73;4.30;;;2.00;94.30;;;;;;5075915;28;20442;-61
2021/01/08 01:40:37;;;;;;;5.13;3.90;;;2.00;99.90;;;;;;5075762;28;20618;-61
2021/01/08 01:43:03;;;;;;;7.53;5.33;;;1.80;99.90;;;;;;5075537;28;20180;-61
2021/01/08 01:45:29;;;;;;;6.17;3.87;;;1.90;99.90;;;;;;5075662;28;20204;-61
2021/01/08 01:47:54;;;;;;;5.00;3.50;;;1.90;99.90;;;;;;5075848;28;20219;-61
2021/01/08 01:50:21;;;;;;;4.73;3.60;;;1.80;99.90;;;;;;5075689;28;20181;-60
2021/01/08 01:52:47;;;;;;;6.32;3.95;;;1.70;99.90;;;;;;5075551;28;20192;-60
2021/01/08 01:55:13;;;;;;;7.77;4.43;;;1.80;99.90;;;;;;5075497;28;20188;-60
2021/01/08 01:57:39;;;;;;;7.38;5.03;;;1.80;99.90;;;;;;5075677;28;20177;-60
2021/01/08 02:00:05;;;;;;;7.13;5.50;;;1.70;99.90;;;;;;5075304;28;20220;-60
2021/01/08 02:03:02;;;;;;;8.05;4.68;;;1.70;99.90;;;;;;5075556;28;20252;-62
2021/01/08 02:05:29;;;;;;;10.18;5.15;;;1.80;99.90;;;;;;5074999;28;20215;-63
2021/01/08 02:08:06;;;;;;;6.97;4.40;;;2.00;99.90;;;;;;5075450;28;20188;-61
2021/01/08 02:10:43;;;;;;;9.07;4.88;;;2.20;99.90;;;;;;5075549;28;20617;-62
2021/01/08 02:13:16;;;;;;;5.88;4.63;;;2.40;99.90;;;;;;5075114;28;20259;-62
2021/01/08 02:15:41;;;;;;;6.70;4.05;;;2.50;99.90;;;;;;5074318;28;20224;-61
2021/01/08 02:18:07;;;;;;;5.40;3.90;;;2.30;99.90;;;;;;5075111;28;20227;-61
2021/01/08 02:20:33;;;;;;;5.20;3.90;;;2.00;99.90;;;;;;5074868;28;20212;-61
2021/01/08 02:23:21;;;;;;;6.20;4.45;;;2.10;99.90;;;;;;5075269;28;20484;-61
2021/01/08 02:25:47;;;;;;;4.78;3.60;;;2.10;99.90;;;;;;5075131;28;20550;-61
2021/01/08 02:28:21;;;;;;;6.13;4.20;;;2.10;99.90;;;;;;5074806;28;20176;-61
2021/01/08 02:30:48;;;;;;;5.85;4.15;;;2.20;99.90;;;;;;5074756;28;20419;-61
2021/01/08 02:33:15;;;;;;;5.97;4.85;;;2.30;99.90;;;;;;5074454;28;20568;-63
2021/01/08 02:35:42;;;;;;;5.93;4.15;;;2.60;99.90;;;;;;5074602;28;20258;-60
2021/01/08 02:38:10;;;;;;;5.97;4.28;;;2.00;99.90;;;;;;5074813;28;20518;-62
2021/01/08 02:40:37;;;;;;;5.22;4.05;;;1.90;99.90;;;;;;5074828;28;20208;-62
2021/01/08 02:43:04;;;;;;;7.03;4.13;;;1.90;99.90;;;;;;5075180;28;20177;-62
2021/01/08 02:45:31;;;;;;;7.25;4.80;;;1.70;99.90;;;;;;5075064;28;20272;-60
2021/01/08 02:47:56;;;;;;;5.95;4.00;;;1.80;99.90;;;;;;5073652;28;20177;-60
2021/01/08 02:50:22;;;;;;;6.37;4.10;;;1.80;99.90;;;;;;5074537;28;20187;-60
2021/01/08 02:52:52;;;;;;;9.30;3.80;;;1.90;99.90;;;;;;5074475;28;20263;-61
2021/01/08 02:55:23;;;;;;;5.57;4.10;;;1.90;99.90;;;;;;5073673;28;20180;-61
2021/01/08 02:57:50;;;;;;;5.80;4.07;;;1.70;99.90;;;;;;5074410;28;20310;-60
2021/01/08 03:00:17;;;;;;;5.43;3.72;;;1.60;99.90;;;;;;5074306;28;20222;-59
2021/01/08 03:02:43;;;;;;;8.40;4.85;;;1.60;99.90;;;;;;5074170;28;20620;-60
2021/01/08 03:05:10;;;;;;;7.85;4.70;;;1.70;99.90;;;;;;5073975;28;20305;-60
2021/01/08 03:07:35;;;;;;;9.35;4.55;;;1.70;99.90;;;;;;5074106;28;20215;-60
2021/01/08 03:10:01;;;;;;;7.87;4.47;;;1.70;99.90;;;;;;5074248;28;20208;-60
2021/01/08 03:12:30;;;;;;;7.00;4.30;;;1.90;99.90;;;;;;5074141;28;20184;-60
2021/01/08 03:14:57;;;;;;;5.90;4.28;;;1.80;99.90;;;;;;5073869;28;20584;-60
2021/01/08 03:17:23;;;;;;;9.23;6.00;;;1.90;99.90;;;;;;5072922;28;20180;-60
2021/01/08 03:19:48;;;;;;;6.50;4.37;;;1.80;99.90;;;;;;5073874;28;20201;-60
2021/01/08 03:22:14;;;;;;;8.93;5.27;;;1.80;99.90;;;;;;5074014;28;20322;-60
2021/01/08 03:24:39;;;;;;;5.83;3.93;;;2.20;99.90;;;;;;5073622;28;20246;-60
2021/01/08 03:27:05;;;;;;;4.60;3.50;;;2.30;99.90;;;;;;5073910;28;20185;-60
2021/01/08 03:29:31;;;;;;;5.40;3.67;;;2.30;99.90;;;;;;5073865;28;20176;-60
2021/01/08 03:31:56;;;;;;;5.37;4.00;;;1.90;99.90;;;;;;5074265;28;20465;-60
2021/01/08 03:34:22;;;;;;;7.50;4.40;;;1.60;99.90;;;;;;5073465;28;20184;-61
2021/01/08 03:36:47;;;;;;;7.10;4.13;;;1.80;99.90;;;;;;5073675;28;20203;-61
2021/01/08 03:39:13;;;;;;;7.90;4.93;;;2.20;99.90;;;;;;5073682;28;20204;-61
2021/01/08 03:41:38;;;;;;;6.63;4.53;;;2.50;99.90;;;;;;5073599;28;20233;-61
2021/01/08 03:44:04;;;;;;;8.93;5.10;;;2.30;99.90;;;;;;5073369;28;20238;-61
2021/01/08 03:46:35;;;;;;;7.40;4.70;;;1.90;99.90;;;;;;5073799;28;20636;-61
2021/01/08 03:49:02;;;;;;;8.85;5.85;;;1.70;99.90;;;;;;5073515;28;20215;-61
2021/01/08 03:51:27;;;;;;;11.00;5.97;;;1.70;99.90;;;;;;5089651;28;20215;-61
2021/01/08 03:53:53;;;;;;;6.30;4.60;;;1.60;99.90;;;;;;5073198;28;20223;-61
2021/01/08 03:56:18;;;;;;;9.33;5.50;;;1.50;99.90;;;;;;5073469;28;20210;-61
2021/01/08 03:58:44;;;;;;;7.50;5.47;;;1.50;99.90;;;;;;5072434;28;20479;-61
2021/01/08 04:01:09;;;;;;;10.63;5.10;;;1.80;99.90;;;;;;5073243;28;20204;-61
2021/01/08 04:03:35;;;;;;;8.10;6.20;;;1.70;99.90;;;;;;5073017;28;20185;-61
2021/01/08 04:06:00;;;;;;;7.97;5.67;;;1.80;99.90;;;;;;5072205;28;20173;-61
2021/01/08 04:08:26;;;;;;;9.20;5.33;;;2.00;99.90;;;;;;5076382;28;20176;-61
2021/01/08 04:10:51;;;;;;;8.80;5.37;;;2.10;99.90;;;;;;5076406;28;20200;-61
2021/01/08 04:13:17;;;;;;;7.47;5.10;;;2.00;99.90;;;;;;5077063;28;20197;-61
2021/01/08 04:15:43;;;;;;;7.83;5.07;;;1.80;99.90;;;;;;5077314;28;20196;-61
2021/01/08 04:18:08;;;;;;;6.70;4.70;;;1.70;99.90;;;;;;5076193;28;20894;-61
2021/01/08 04:20:34;;;;;;;8.00;4.87;;;1.70;99.90;;;;;;5076121;28;20216;-61
2021/01/08 04:22:59;;;;;;;7.40;5.40;;;1.90;99.90;;;;;;5077165;28;20185;-61
2021/01/08 04:25:25;;;;;;;7.83;4.50;;;2.00;99.90;;;;;;5075915;28;20606;-61
2021/01/08 04:27:51;;;;;;;7.17;4.70;;;1.70;99.90;;;;;;5077262;28;20238;-61
2021/01/08 04:30:17;;;;;;;6.53;4.20;;;1.70;99.90;;;;;;5076966;28;20747;-61
2021/01/08 04:32:42;;;;;;;6.63;3.47;;;1.50;99.90;;;;;;5076975;28;20186;-61
2021/01/08 04:35:08;;;;;;;5.60;4.10;;;1.50;99.90;;;;;;5076678;28;20911;-61
2021/01/08 04:37:34;;;;;;;5.50;4.32;;;1.60;99.90;;;;;;5076830;28;20203;-61
2021/01/08 04:39:59;;;;;;;7.40;4.63;;;1.80;99.90;;;;;;5076835;28;20650;-61
2021/01/08 04:42:28;;;;;;;7.10;4.60;;;1.80;99.90;;;;;;5076815;28;20257;-61
2021/01/08 04:44:54;;;;;;;7.78;4.55;;;1.80;99.90;;;;;;5076713;28;20180;-61
2021/01/08 04:47:21;;;;;;;10.70;5.53;;;1.70;99.90;;;;;;5077047;28;20496;-61
2021/01/08 04:49:47;;;;;;;8.57;5.53;;;1.80;99.90;;;;;;5076886;28;20287;-60
2021/01/08 04:52:13;;;;;;;7.17;4.80;;;1.90;99.90;;;;;;5077227;28;20337;-61
2021/01/08 04:54:40;;;;;;;5.72;4.15;;;1.90;99.90;;;;;;5075990;28;20334;-60
2021/01/08 04:57:07;;;;;;;6.32;4.75;;;2.00;99.90;;;;;;5076954;28;20177;-60
2021/01/08 04:59:33;;;;;;;6.60;4.53;;;1.80;99.90;;;;;;5076590;28;20297;-60
2021/01/08 05:01:58;;;;;;;10.93;5.55;;;1.90;99.90;;;;;;5075493;28;20572;-61
2021/01/08 05:04:24;;;;;;;9.07;6.10;;;2.00;99.90;;;;;;5075292;28;20592;-62
2021/01/08 05:06:50;;;;;;;11.10;6.50;;;2.10;99.90;;;;;;5075379;28;20181;-61
2021/01/08 05:09:15;;;;;;;11.63;6.50;;;2.10;99.90;;;;;;5075296;28;20184;-61
2021/01/08 05:11:45;;;;;;;8.43;5.83;;;2.30;99.90;;;;;;5075311;28;20625;-61
2021/01/08 05:14:13;;;;;;;8.88;6.32;;;2.00;99.90;;;;;;5075094;28;20216;-61
2021/01/08 05:16:39;;;;;;;8.95;4.63;;;1.90;99.90;;;;;;5075222;28;20203;-61
2021/01/08 05:19:06;;;;;;;7.60;5.07;;;1.60;99.90;;;;;;5074757;28;20208;-61
2021/01/08 05:21:32;;;;;;;10.02;6.03;;;1.80;99.90;;;;;;5075718;28;20185;-61
2021/01/08 05:23:59;;;;;;;7.75;6.00;;;1.70;99.90;;;;;;5074951;28;20172;-61
2021/01/08 05:26:25;;;;;;;8.07;5.43;;;2.00;99.90;;;;;;5074995;28;20688;-61
2021/01/08 05:28:56;;;;;;;11.15;5.65;;;2.10;99.90;;;;;;5074909;28;20256;-61
2021/01/08 05:31:26;;;;;;;10.27;7.20;;;2.10;99.90;;;;;;5074870;28;20176;-61
2021/01/08 05:33:53;;;;;;;10.80;5.72;;;2.30;99.90;;;;;;5074549;28;20617;-61
2021/01/08 05:36:19;;;;;;;8.20;5.65;;;2.00;99.90;;;;;;5074689;28;20172;-61
2021/01/08 05:38:59;;;;;;;12.05;6.40;;;1.90;99.90;;;;;;5074526;28;20515;-61
2021/01/08 05:41:27;;;;;;;12.18;7.25;;;1.90;99.90;;;;;;5074767;28;20176;-61
2021/01/08 05:43:53;;;;;;;9.43;5.63;;;1.80;99.90;;;;;;5074391;28;20164;-61
2021/01/08 05:46:23;;;;;;;10.45;7.00;;;1.80;99.90;;;;;;5074607;28;20199;-61
2021/01/08 05:48:51;;;;;;;10.07;5.78;;;1.80;99.90;;;;;;5074516;28;20262;-61
2021/01/08 05:51:19;;;;;;;14.35;8.75;;;1.80;99.90;;;;;;5074631;28;20192;-62
2021/01/08 05:53:50;;;;;;;13.60;7.85;;;1.60;99.90;;;;;;5073362;28;20512;-61
2021/01/08 05:56:17;;;;;;;16.80;8.93;;;1.80;99.90;;;;;;5074581;28;20169;-61
2021/01/08 05:58:44;;;;;;;12.88;8.15;;;1.90;99.90;;;;;;5074367;28;20169;-61
2021/01/08 06:01:11;;;;;;;17.30;7.73;;;2.10;99.90;;;;;;5053258;28;619581;-62
2021/01/08 06:03:38;;;;;;;15.38;7.70;;;1.90;99.90;;;;;;5075058;28;20876;-59
2021/01/08 06:06:04;;;;;;;10.73;6.60;;;2.00;99.90;;;;;;5074267;28;20648;-61
2021/01/08 06:08:44;;;;;;;10.73;6.72;;;1.80;99.90;;;;;;5075223;28;20206;-61
2021/01/08 06:11:19;;;;;;;12.52;6.63;;;1.70;99.90;;;;;;5075073;28;20558;-61
2021/01/08 06:13:52;;;;;;;14.98;7.65;;;1.90;99.90;;;;;;5075326;28;20187;-61
2021/01/08 06:16:19;;;;;;;12.38;6.75;;;2.10;99.90;;;;;;5075464;28;20192;-61
2021/01/08 06:18:47;;;;;;;15.35;8.73;;;2.00;99.90;;;;;;5075026;28;20181;-61
2021/01/08 06:21:12;;;;;;;10.32;6.43;;;2.20;99.90;;;;;;5073991;28;20180;-61
2021/01/08 06:23:46;;;;;;;15.13;7.20;;;2.10;99.90;;;;;;5074655;28;20241;-61
2021/01/08 06:26:19;;;;;;;8.85;5.75;;;2.20;99.90;;;;;;5074926;28;20168;-61
2021/01/08 06:28:46;;;;;;;10.32;6.05;;;2.20;99.90;;;;;;5074506;28;20180;-61
2021/01/08 06:31:20;;;;;;;11.50;7.13;;;2.20;99.90;;;;;;5074041;28;20181;-61
2021/01/08 06:33:51;;;;;;;14.00;7.25;;;2.10;99.90;;;;;;5074574;28;20244;-61
2021/01/08 06:36:22;;;;;;;11.18;7.45;;;2.10;99.90;;;;;;5074587;28;20513;-60
2021/01/08 06:38:53;;;;;;;13.48;7.38;;;1.80;99.90;;;;;;5074541;28;20619;-61
2021/01/08 06:41:19;;;;;;;14.60;7.82;;;1.90;99.90;;;;;;5074286;28;20507;-61
2021/01/08 06:43:50;;;;;;;13.30;8.10;;;2.00;99.90;;;;;;5074116;28;20173;-61
2021/01/08 06:46:33;;;;;;;15.68;8.07;;;2.10;99.90;;;;;;5074527;28;20629;-61
2021/01/08 06:49:01;;;;;;;14.35;8.10;;;2.20;99.90;;;;;;5074445;28;20180;-61
2021/01/08 06:51:35;;;;;;;14.20;7.80;;;2.20;99.90;;;;;;5074327;28;20636;-61
2021/01/08 06:54:04;;;;;;;18.08;8.60;;;2.20;99.90;;;;;;5074296;28;20637;-61
2021/01/08 06:56:30;;;;;;;12.18;8.40;;;2.40;99.90;;;;;;5073529;28;20269;-61
2021/01/08 06:58:56;;;;;;;13.35;7.88;;;2.30;99.90;;;;;;5073771;28;20191;-61
2021/01/08 07:01:54;;;;;;;14.90;7.90;;;2.10;99.90;;;;;;5074738;28;20195;-61
2021/01/08 07:04:29;;;;;;;14.48;8.23;;;2.00;99.90;;;;;;5074297;28;20177;-61
2021/01/08 07:06:58;;;;;;;14.05;8.70;;;1.90;99.90;;;;;;5074422;28;20176;-61
2021/01/08 07:09:30;;;;;;;12.80;7.93;;;2.10;99.90;;;;;;5074784;28;20572;-60
2021/01/08 07:11:58;;;;;;;19.10;9.50;;;2.00;99.90;;;;;;5074486;28;20210;-61
2021/01/08 07:14:24;;;;;;;14.63;9.23;;;2.10;99.90;;;;;;5073757;28;20187;-61
2021/01/08 07:16:52;;;;;;;12.30;8.60;;;2.00;99.90;;;;;;5073924;28;20268;-61
2021/01/08 07:19:20;;;;;;;12.90;8.63;;;2.10;99.90;;;;;;5073844;28;20200;-61
2021/01/08 07:21:58;;;;;;;15.95;8.68;;;2.10;99.90;;;;;;5073971;28;20191;-60
2021/01/08 07:24:25;;;;;;;16.35;9.15;;;2.40;99.90;;;;;;5074742;28;20187;-61
2021/01/08 07:26:52;;;;;;;14.00;8.65;;;2.30;99.90;;;;;;5074841;28;20238;-60
2021/01/08 07:29:25;;;;;;;14.98;8.18;;;2.40;99.90;;;;;;5074123;28;20188;-60
2021/01/08 07:31:54;;;;;;;13.88;8.30;;;2.20;99.90;;;;;;5075070;28;20256;-60
2021/01/08 07:34:33;;;;;;;12.25;7.55;;;2.10;99.90;;;;;;5075111;28;20188;-60
2021/01/08 07:36:59;;;;;;;14.40;8.60;;;1.90;99.90;;;;;;5075069;28;20189;-61
2021/01/08 07:40:01;;;;;;;16.85;8.85;;;2.00;99.90;;;;;;5076310;28;20215;-61
2021/01/08 07:42:31;;;;;;;16.05;8.82;;;1.90;99.90;;;;;;5070431;28;20241;-62
2021/01/08 07:44:57;;;;;;;12.10;8.10;;;1.90;99.90;;;;;;5076306;28;20177;-63
2021/01/08 07:47:27;;;;;;;11.10;7.70;;;1.80;99.90;;;;;;5077019;28;20187;-63
2021/01/08 07:50:07;;;;;;;14.88;8.40;;;1.80;99.90;;;;;;5076782;28;20419;-63
2021/01/08 07:52:37;;;;;;;14.55;9.20;;;1.90;99.90;;;;;;5076113;28;20195;-61
2021/01/08 07:55:03;;;;;;;16.27;7.90;;;2.00;99.90;;;;;;5073828;28;20176;-61
2021/01/08 07:57:29;;;;;;;17.97;9.90;;;1.90;99.90;;;;;;5073731;28;20177;-63
2021/01/08 07:59:55;;;;;;;16.37;8.37;;;2.00;99.90;;;;;;5074736;28;20523;-62
2021/01/08 08:02:20;;;;;;;15.27;9.07;;;2.20;99.90;;;;;;5075428;28;20306;-62
2021/01/08 08:04:48;;;;;;;19.83;10.97;;;2.10;99.90;;;;;;5074524;28;20247;-62
2021/01/08 08:07:14;;;;;;;17.05;9.95;;;2.30;99.90;;;;;;5073844;28;20208;-62
2021/01/08 08:09:39;;;;;;;15.43;8.98;;;2.40;99.90;;;;;;5072839;28;20189;-60
2021/01/08 08:12:11;;;;;;;18.73;10.50;;;2.50;99.90;;;;;;5072802;28;20180;-60
2021/01/08 08:14:37;;;;;;;16.52;9.55;;;2.60;99.90;;;;;;5073150;28;20241;-62
2021/01/08 08:17:04;;;;;;;19.30;10.87;;;2.60;99.90;;;;;;5073138;28;20633;-62
2021/01/08 08:19:33;;;;;;;16.42;10.23;;;2.70;99.90;;;;;;5073520;28;20587;-63
2021/01/08 08:21:59;;;;;;;14.50;8.82;;;2.70;99.90;;;;;;5073202;28;20172;-61
2021/01/08 08:24:27;;;;;;;16.80;9.57;;;2.50;99.90;;;;;;5072880;28;20606;-60
2021/01/08 08:26:53;;;;;;;19.17;8.77;;;2.40;99.90;;;;;;5073278;28;20255;-60
2021/01/08 08:29:19;;;;;;;18.45;10.40;;;2.50;99.90;;;;;;5072997;28;20180;-61
2021/01/08 08:31:52;;;;;;;15.70;8.97;;;2.40;99.90;;;;;;5073192;28;20617;-61
2021/01/08 08:34:28;;;;;;;18.17;9.57;;;2.30;99.90;;;;;;5072836;28;20445;-60
2021/01/08 08:36:54;;;;;;;12.43;7.80;;;2.30;99.90;;;;;;5073412;28;20172;-60
2021/01/08 08:39:19;;;;;;;16.90;10.03;;;2.20;99.90;;;;;;5073298;28;20200;-61
2021/01/08 08:41:47;;;;;;;16.60;9.27;;;2.40;99.90;;;;;;5073470;28;20230;-60
2021/01/08 08:44:17;;;;;;;15.80;10.02;;;2.30;99.90;;;;;;5073206;28;20193;-61
2021/01/08 08:46:47;;;;;;;18.88;9.57;;;2.40;99.90;;;;;;5072940;28;20256;-61
2021/01/08 08:49:25;;;;;;;19.20;10.15;;;2.50;99.90;;;;;;5073401;28;20172;-61
2021/01/08 08:51:52;;;;;;;17.90;10.07;;;2.30;99.90;;;;;;5073434;28;20610;-61
2021/01/08 08:54:19;;;;;;;19.95;10.60;;;2.50;99.90;;;;;;5075631;28;20184;-61
2021/01/08 08:56:50;;;;;;;17.45;9.85;;;2.50;99.90;;;;;;5076919;28;20275;-61
2021/01/08 08:59:43;;;;;;;17.08;10.15;;;2.60;99.90;;;;;;5076567;28;20193;-61
2021/01/08 09:02:32;;;;;;;15.38;9.70;;;2.90;99.90;;;;;;5076657;28;20594;-61
2021/01/08 09:05:02;;;;;;;15.80;9.27;;;2.80;99.90;;;;;;5074456;28;20580;-61
2021/01/08 09:08:06;;;;;;;18.20;10.52;;;2.90;99.90;;;;;;5076072;28;20195;-60
2021/01/08 09:10:40;;;;;;;19.80;9.50;;;2.80;99.90;;;;;;5076403;28;20197;-62
2021/01/08 09:13:35;;;;;;;15.90;9.75;;;2.60;57.60;;;;;;5076610;28;20637;-61
2021/01/08 09:16:06;;;;;;;21.17;11.82;;;2.50;67.80;;;;;;5077020;28;20188;-61
2021/01/08 09:18:52;;;;;;;19.05;10.43;;;2.40;93.40;;;;;;5076999;28;20180;-60
2021/01/08 09:21:47;;;;;;;17.15;10.25;;;2.20;99.90;;;;;;5076792;28;20188;-60
2021/01/08 09:24:18;;;;;;;17.10;10.20;;;2.30;99.90;;;;;;5072764;28;20193;-60
2021/01/08 09:26:44;;;;;;;54.38;28.42;;;2.30;99.90;;;;;;5076621;28;20177;-63
2021/01/08 09:29:10;;;;;;;19.05;11.38;;;2.50;99.90;;;;;;5077071;28;20191;-60
2021/01/08 09:31:44;;;;;;;19.00;10.60;;;2.50;99.90;;;;;;5076873;28;20191;-61
2021/01/08 09:34:18;;;;;;;13.85;9.63;;;2.60;99.90;;;;;;5076422;28;20180;-61
2021/01/08 09:36:47;;;;;;;20.88;10.73;;;2.50;99.90;;;;;;5076896;28;20177;-61
2021/01/08 09:39:13;;;;;;;20.13;10.80;;;2.70;99.90;;;;;;5076562;28;20214;-60
2021/01/08 09:41:40;;;;;;;19.02;11.88;;;2.60;97.90;;;;;;5076504;28;20245;-63
2021/01/08 09:44:08;;;;;;;15.65;10.25;;;2.90;99.90;;;;;;5073879;28;20177;-63
2021/01/08 09:46:52;;;;;;;15.32;8.68;;;2.70;49.50;;;;;;5075868;28;20264;-63
2021/01/08 09:49:18;;;;;;;14.48;8.75;;;2.50;1.00;;;;;;5076188;28;20190;-63
2021/01/08 09:51:44;;;;;;;17.17;9.73;;;2.30;2.20;;;;;;5076086;28;20268;-63
2021/01/08 09:54:10;;;;;;;17.73;10.15;;;2.50;28.00;;;;;;5074674;28;20513;-61
2021/01/08 09:56:36;;;;;;;18.03;10.10;;;2.50;26.50;;;;;;5075771;28;20176;-61
2021/01/08 09:59:15;;;;;;;15.93;8.67;;;2.40;20.60;;;;;;5076372;28;20192;-59
2021/01/08 10:01:54;;;;;;;16.27;8.57;;;2.40;1.00;;;;;;5076006;28;20184;-60
2021/01/08 10:04:30;;;;;;;15.65;8.95;;;2.30;1.00;;;;;;5073871;28;20169;-60
2021/01/08 10:07:01;;;;;;;15.20;8.98;;;2.50;5.70;;;;;;5074639;28;20183;-60
2021/01/08 10:09:43;;;;;;;15.75;8.35;;;2.50;1.00;;;;;;5075520;28;20238;-61
2021/01/08 10:12:10;;;;;;;15.77;9.38;;;2.50;1.00;;;;;;5075354;28;20203;-61
2021/01/08 10:14:36;;;;;;;17.65;9.88;;;2.60;1.00;;;;;;5074532;28;20184;-59
2021/01/08 10:17:15;;;;;;;16.60;9.77;;;2.50;1.00;;;;;;5075728;28;20238;-58
2021/01/08 10:19:44;;;;;;;16.45;10.00;;;2.40;1.00;;;;;;5075465;28;20830;-58
2021/01/08 10:22:10;;;;;;;11.45;7.97;;;2.60;6.50;;;;;;5075467;28;20173;-60
2021/01/08 10:24:36;;;;;;;14.47;10.40;;;2.80;1.00;;;;;;5075716;28;20187;-60
2021/01/08 10:27:02;;;;;;;13.30;8.83;;;2.60;1.00;;;;;;5075423;28;20610;-60
2021/01/08 10:29:32;;;;;;;13.10;7.05;;;2.50;1.00;;;;;;5075530;28;20513;-60
2021/01/08 10:32:13;;;;;;;16.00;9.75;;;2.60;1.00;;;;;;5074909;28;20197;-59
2021/01/08 10:34:43;;;;;;;18.00;9.68;;;2.70;14.10;;;;;;5074438;28;20512;-60
2021/01/08 10:37:19;;;;;;;14.40;8.20;;;2.50;1.80;;;;;;5075255;28;20200;-58
2021/01/08 10:39:46;;;;;;;15.93;10.38;;;2.30;9.00;;;;;;5075021;28;20200;-58
2021/01/08 10:42:17;;;;;;;13.07;8.50;;;2.20;32.60;;;;;;5075035;28;20177;-58
2021/01/08 10:44:43;;;;;;;14.07;7.70;;;2.20;58.20;;;;;;5070851;28;20205;-58
2021/01/08 10:47:09;;;;;;;13.38;9.05;;;2.50;89.10;;;;;;5069094;28;20222;-58
2021/01/08 10:49:37;;;;;;;13.90;9.02;;;2.50;82.20;;;;;;5074367;28;20899;-58
2021/01/08 10:52:09;;;;;;;14.80;7.75;;;2.40;73.40;;;;;;5074374;28;20173;-59
2021/01/08 10:54:35;;;;;;;15.57;8.73;;;2.30;68.20;;;;;;5074011;28;20185;-58
2021/01/08 10:57:01;;;;;;;14.50;9.27;;;2.10;93.30;;;;;;5074329;28;20306;-59
2021/01/08 10:59:26;;;;;;;13.50;8.03;;;2.10;99.90;;;;;;5074003;28;20649;-59
2021/01/08 11:01:52;;;;;;;12.60;8.07;;;2.10;99.90;;;;;;5073745;28;20958;-59
2021/01/08 11:04:17;;;;;;;14.77;9.37;;;2.20;99.90;;;;;;5073714;28;20617;-59
2021/01/08 11:06:43;;;;;;;17.10;9.83;;;2.20;99.90;;;;;;5073964;28;20202;-59
2021/01/08 11:09:09;;;;;;;15.73;9.03;;;2.40;99.90;;;;;;5073485;28;20200;-59
2021/01/08 11:11:35;;;;;;;12.17;7.93;;;2.30;99.90;;;;;;5073538;28;20195;-58
2021/01/08 11:14:01;;;;;;;14.85;8.52;;;2.20;99.90;;;;;;5073571;28;20211;-58
2021/01/08 11:16:27;;;;;;;19.48;7.70;;;2.20;99.90;;;;;;5072802;28;20180;-59
2021/01/08 11:18:54;;;;;;;15.35;8.85;;;2.10;99.90;;;;;;5073701;28;20181;-59
2021/01/08 11:21:23;;;;;;;11.48;7.50;;;1.90;99.90;;;;;;5073574;28;20184;-60
2021/01/08 11:23:49;;;;;;;14.05;6.93;;;2.10;99.90;;;;;;5073697;28;20229;-60
2021/01/08 11:26:28;;;;;;;14.35;8.70;;;2.10;99.90;;;;;;5073556;28;20513;-60
2021/01/08 11:28:55;;;;;;;15.23;9.48;;;2.20;99.90;;;;;;5073852;28;20188;-59
2021/01/08 11:31:21;;;;;;;14.05;7.68;;;2.20;99.90;;;;;;5073764;28;20236;-59
2021/01/08 11:33:46;;;;;;;13.50;9.17;;;2.10;99.90;;;;;;5073116;28;20230;-60
2021/01/08 11:36:17;;;;;;;16.50;9.00;;;2.20;99.90;;;;;;5073508;28;20226;-60
2021/01/08 11:38:42;;;;;;;12.52;9.10;;;2.40;99.90;;;;;;5073646;28;20736;-57
2021/01/08 11:41:09;;;;;;;15.20;9.30;;;2.40;99.90;;;;;;5072553;28;20274;-57
2021/01/08 11:43:35;;;;;;;14.38;9.73;;;2.50;99.90;;;;;;5072557;28;20184;-59
2021/01/08 11:46:01;;;;;;;13.80;8.77;;;2.60;99.90;;;;;;5072412;28;20176;-58
2021/01/08 11:48:26;;;;;;;12.30;7.37;;;2.20;99.90;;;;;;5071859;28;20193;-58
2021/01/08 11:50:52;;;;;;;14.17;8.80;;;2.20;99.90;;;;;;5073113;28;20191;-58
2021/01/08 11:53:17;;;;;;;10.27;6.50;;;2.40;99.90;;;;;;5073056;28;20169;-58
2021/01/08 11:55:44;;;;;;;18.80;8.90;;;2.40;99.90;;;;;;5073111;28;20208;-59
2021/01/08 11:58:10;;;;;;;17.27;10.93;;;2.30;94.80;;;;;;5073025;28;20194;-57
2021/01/08 12:00:35;;;;;;;34.43;16.70;;;2.80;99.90;;;;;;5073001;28;20307;-57
2021/01/08 12:03:01;;;;;;;37.23;13.90;;;2.70;91.50;;;;;;5073327;28;20217;-58
2021/01/08 12:05:29;;;;;;;15.00;8.47;;;2.80;84.60;;;;;;5073324;28;20184;-57
2021/01/08 12:07:55;;;;;;;14.23;8.60;;;2.60;32.80;;;;;;5073098;28;20203;-59
2021/01/08 12:10:20;;;;;;;14.40;10.33;;;2.70;24.60;;;;;;5073286;28;20176;-60
2021/01/08 12:12:49;;;;;;;12.27;7.73;;;2.80;22.20;;;;;;5073063;28;20573;-59
2021/01/08 12:15:15;;;;;;;12.93;8.20;;;2.60;1.00;;;;;;5072823;28;20199;-59
2021/01/08 12:17:41;;;;;;;14.90;8.13;;;2.50;1.00;;;;;;5073170;28;20208;-60
2021/01/08 12:20:08;;;;;;;15.67;9.13;;;2.20;1.00;;;;;;5073245;28;21003;-59
2021/01/08 12:22:34;;;;;;;14.15;7.95;;;2.60;16.60;;;;;;5072664;28;20419;-59
2021/01/08 12:25:00;;;;;;;9.67;7.20;;;2.80;5.20;;;;;;5073282;28;20508;-59
2021/01/08 12:27:26;;;;;;;9.63;6.30;;;2.40;1.00;;;;;;5073168;28;20181;-61
2021/01/08 12:29:51;;;;;;;11.20;7.60;;;2.30;1.00;;;;;;5077278;28;20249;-61
2021/01/08 12:32:17;;;;;;;13.13;8.43;;;2.20;2.80;;;;;;5077723;28;20711;-60
2021/01/08 12:34:42;;;;;;;11.03;6.70;;;2.20;13.10;;;;;;5077169;28;20192;-61
2021/01/08 12:37:08;;;;;;;11.93;7.97;;;2.30;21.30;;;;;;5077289;28;20639;-60
2021/01/08 12:39:34;;;;;;;8.40;6.00;;;2.30;23.90;;;;;;5077468;28;20663;-60
2021/01/08 12:42:01;;;;;;;14.45;9.27;;;2.10;43.00;;;;;;5076709;28;20534;-60
2021/01/08 12:44:27;;;;;;;11.60;7.30;;;2.00;84.60;;;;;;5077616;28;20177;-61
2021/01/08 12:46:57;;;;;;;9.80;7.10;;;2.00;99.90;;;;;;5077241;28;20263;-61
2021/01/08 12:49:22;;;;;;;13.02;7.50;;;2.00;99.90;;;;;;5077144;28;20206;-60
2021/01/08 12:51:50;;;;;;;10.07;6.90;;;2.20;99.90;;;;;;5076947;28;20177;-61
2021/01/08 12:54:16;;;;;;;11.07;6.85;;;2.40;99.90;;;;;;5076824;28;20211;-60
2021/01/08 12:56:43;;;;;;;8.25;5.72;;;2.20;99.90;;;;;;5076798;28;20639;-61